Wilson Gaeta — 8PTS — position and weather

sailwx.info

Track history (hours):
 
Tides and Currents Weather Stations Pressure Air Temp Water Temp Dewpoint Dewpoint Depression Visibility Wind Speed Wind Dir Waves Ship Positions

Wilson Gaeta

Last reported at 2017-Jan-24 10:20 UTC. Time now 2017-Jan-24 19:28 UTC.
Position N 54°33' E 010°29'.

Length 88 m; draft 5.5 m.

Type: Ship. MMSI: 314237000.

Date/timePositionNaut miles runAvg speedWind from/ knotsBaromVisibWave heightAir tempDewpointWater temp
2017-Jan-24 10:20N 54°33' E 010°29'7 9.5
2017-Jan-24 09:33N 54°35' E 010°41'1010.0
2017-Jan-24 08:33N 54°36' E 010°59'1110.6
2017-Jan-24 07:34N 54°34' E 011°17'1110.7
2017-Jan-24 06:33N 54°30' E 011°34'1010.2
2017-Jan-24 05:33N 54°27' E 011°50'1010.1
2017-Jan-24 04:33N 54°27' E 012°07'10 9.8
2017-Jan-24 03:33N 54°36' E 012°14'1010.2
2017-Jan-24 02:33N 54°42' E 012°29'49 9.8
2017-Jan-23 21:32N 54°52' E 013°52'9 9.6
2017-Jan-23 20:33N 54°54' E 014°08'10 9.9
2017-Jan-23 19:33N 54°54' E 014°25'10 9.7
2017-Jan-23 18:33N 54°53' E 014°42'10 9.6
2017-Jan-23 17:33N 54°53' E 014°59'99 9.9
2017-Jan-23 07:33N 55°20' E 017°46'13 9.8
2017-Jan-23 06:16N 55°22' E 018°08'11 9.6
2017-Jan-23 05:05N 55°25' E 018°27'7 9.5
2017-Jan-23 04:24N 55°27' E 018°38'10 9.4
2017-Jan-23 03:18N 55°29' E 018°56'18 9.4
2017-Jan-23 01:23N 55°34' E 019°27'9 9.5
2017-Jan-23 00:29N 55°36' E 019°41'9 9.5
2017-Jan-22 23:32N 55°38' E 019°57'  
2017-Jan-17 22:24N 55°20' E 019°00'910.8
2017-Jan-17 21:32N 55°10' E 019°01'1110.7
2017-Jan-17 20:33N 54°60' E 019°03'1110.8
2017-Jan-17 19:33N 54°49' E 019°04'1111.4
2017-Jan-17 18:33N 54°38' E 019°07'1110.8
2017-Jan-17 17:33N 54°28' E 019°00'9 9.5
2017-Jan-17 16:33N 54°22' E 018°47'2 1.8
2017-Jan-17 15:33N 54°21' E 018°44'0 0.0
2017-Jan-17 14:33N 54°21' E 018°44'0 0.0
2017-Jan-17 13:33N 54°21' E 018°44'0 0.0
2017-Jan-17 12:33N 54°21' E 018°44'0 0.0
2017-Jan-17 11:33N 54°21' E 018°44'0 0.0
2017-Jan-17 10:33N 54°21' E 018°44'0 0.0
2017-Jan-17 09:33N 54°21' E 018°44'0 0.0
2017-Jan-17 08:33N 54°21' E 018°44'0 0.0
2017-Jan-17 07:33N 54°21' E 018°44'0 0.0
2017-Jan-17 06:33N 54°21' E 018°44'0 0.0
2017-Jan-17 05:33N 54°21' E 018°44'0 0.0
2017-Jan-17 04:33N 54°21' E 018°44'0 0.0
2017-Jan-17 03:33N 54°21' E 018°44'0 0.0
2017-Jan-17 02:33N 54°21' E 018°44'0 0.0
2017-Jan-17 01:33N 54°21' E 018°44'0 0.0
2017-Jan-17 00:33N 54°21' E 018°44'0 0.0
2017-Jan-16 23:33N 54°21' E 018°44'0 0.0
2017-Jan-16 22:33N 54°21' E 018°44'0 0.0
2017-Jan-16 21:33N 54°21' E 018°44'0 0.0
2017-Jan-16 20:33N 54°21' E 018°44'0 0.0
2017-Jan-16 19:33N 54°21' E 018°44'0 0.0
2017-Jan-16 18:33N 54°21' E 018°44'0 0.0
2017-Jan-16 17:33N 54°21' E 018°44'0 0.0
2017-Jan-16 16:33N 54°21' E 018°44'0 0.0
2017-Jan-16 15:33N 54°21' E 018°44'0 0.0
2017-Jan-16 14:33N 54°21' E 018°44'0 0.0
2017-Jan-16 13:33N 54°21' E 018°44'0 0.0
2017-Jan-16 12:33N 54°21' E 018°44'0 0.0
2017-Jan-16 11:33N 54°21' E 018°44'0 0.0
2017-Jan-16 10:33N 54°21' E 018°44'0 0.0
2017-Jan-16 09:33N 54°21' E 018°44'0 0.0
2017-Jan-16 08:33N 54°21' E 018°44'0 0.0
2017-Jan-16 07:33N 54°21' E 018°44'0 0.0
2017-Jan-16 06:33N 54°21' E 018°44'0 0.0
2017-Jan-16 05:33N 54°21' E 018°44'0 0.0
2017-Jan-16 04:33N 54°21' E 018°44'0 0.0
2017-Jan-16 03:33N 54°21' E 018°44'0 0.0
2017-Jan-16 02:33N 54°21' E 018°44'0 0.0
2017-Jan-16 01:33N 54°21' E 018°44'0 0.0
2017-Jan-16 00:33N 54°21' E 018°44'0 0.0
2017-Jan-15 23:33N 54°21' E 018°44'0 0.0
2017-Jan-15 22:33N 54°21' E 018°44'0 0.0
2017-Jan-15 21:33N 54°21' E 018°44'0 0.0
2017-Jan-15 20:33N 54°21' E 018°44'0 0.0
2017-Jan-15 19:33N 54°21' E 018°44'0 0.0
2017-Jan-15 18:33N 54°21' E 018°44'0 0.0
2017-Jan-15 17:33N 54°21' E 018°44'0 0.0
2017-Jan-15 16:33N 54°21' E 018°44'0 0.0
2017-Jan-15 15:30N 54°21' E 018°44'0 0.0
2017-Jan-15 14:33N 54°21' E 018°44'0 0.0
2017-Jan-15 13:30N 54°21' E 018°44'0 0.0
2017-Jan-15 12:33N 54°21' E 018°44'0 0.0
2017-Jan-15 11:30N 54°21' E 018°44'0 0.0
2017-Jan-15 10:33N 54°21' E 018°44'0 0.0
2017-Jan-15 09:33N 54°21' E 018°44'0 0.0
2017-Jan-15 08:33N 54°21' E 018°44'0 0.0
2017-Jan-15 07:33N 54°21' E 018°44'0 0.0
2017-Jan-15 06:33N 54°21' E 018°44'0 0.0
2017-Jan-15 05:33N 54°21' E 018°44'0 0.0
2017-Jan-15 04:33N 54°21' E 018°44'0 0.0
2017-Jan-15 03:33N 54°21' E 018°44'0 0.0
2017-Jan-15 02:33N 54°21' E 018°44'0 0.0
2017-Jan-15 01:33N 54°21' E 018°44'0 0.0
2017-Jan-15 00:30N 54°21' E 018°44'0 0.0
2017-Jan-14 23:33N 54°21' E 018°44'0 0.0
2017-Jan-14 22:33N 54°21' E 018°44'0 0.0
2017-Jan-14 21:33N 54°21' E 018°44'0 0.0
2017-Jan-14 20:33N 54°21' E 018°44'0 0.0
2017-Jan-14 19:33N 54°21' E 018°44'0 0.0
2017-Jan-14 18:33N 54°21' E 018°44'0 0.0
2017-Jan-14 17:33N 54°21' E 018°44'0 0.0
2017-Jan-14 16:33N 54°21' E 018°44'0 0.0
2017-Jan-14 15:33N 54°21' E 018°44'0 0.0
2017-Jan-14 14:33N 54°21' E 018°44'0 0.0
2017-Jan-14 13:33N 54°21' E 018°44'0 0.0
2017-Jan-14 12:33N 54°21' E 018°44'0 0.0
2017-Jan-14 11:33N 54°21' E 018°44'0 0.0
2017-Jan-14 10:33N 54°21' E 018°44'  
Track history (hours):
 
Tides and Currents Weather Stations Pressure Air Temp Water Temp Dewpoint Dewpoint Depression Visibility Wind Speed Wind Dir Waves Ship Positions

Wilson Gaeta

Last reported at 2017-Jan-24 10:20 UTC. Time now 2017-Jan-24 19:28 UTC.
Position N 54°33' E 010°29'.

Length 88 m; draft 5.5 m.

Type: Ship. MMSI: 314237000.

Date/timePositionNaut miles runAvg speedWind from/ knotsBaromVisibWave heightAir tempDewpointWater temp
2017-Jan-24 10:20N 54°33' E 010°29'7 9.5
2017-Jan-24 09:33N 54°35' E 010°41'1010.0
2017-Jan-24 08:33N 54°36' E 010°59'1110.6
2017-Jan-24 07:34N 54°34' E 011°17'1110.7
2017-Jan-24 06:33N 54°30' E 011°34'1010.2
2017-Jan-24 05:33N 54°27' E 011°50'1010.1
2017-Jan-24 04:33N 54°27' E 012°07'10 9.8
2017-Jan-24 03:33N 54°36' E 012°14'1010.2
2017-Jan-24 02:33N 54°42' E 012°29'49 9.8
2017-Jan-23 21:32N 54°52' E 013°52'9 9.6
2017-Jan-23 20:33N 54°54' E 014°08'10 9.9
2017-Jan-23 19:33N 54°54' E 014°25'10 9.7
2017-Jan-23 18:33N 54°53' E 014°42'10 9.6
2017-Jan-23 17:33N 54°53' E 014°59'99 9.9
2017-Jan-23 07:33N 55°20' E 017°46'13 9.8
2017-Jan-23 06:16N 55°22' E 018°08'11 9.6
2017-Jan-23 05:05N 55°25' E 018°27'7 9.5
2017-Jan-23 04:24N 55°27' E 018°38'10 9.4
2017-Jan-23 03:18N 55°29' E 018°56'18 9.4
2017-Jan-23 01:23N 55°34' E 019°27'9 9.5
2017-Jan-23 00:29N 55°36' E 019°41'9 9.5
2017-Jan-22 23:32N 55°38' E 019°57'  
2017-Jan-17 22:24N 55°20' E 019°00'910.8
2017-Jan-17 21:32N 55°10' E 019°01'1110.7
2017-Jan-17 20:33N 54°60' E 019°03'1110.8
2017-Jan-17 19:33N 54°49' E 019°04'1111.4
2017-Jan-17 18:33N 54°38' E 019°07'1110.8
2017-Jan-17 17:33N 54°28' E 019°00'9 9.5
2017-Jan-17 16:33N 54°22' E 018°47'2 1.8
2017-Jan-17 15:33N 54°21' E 018°44'0 0.0
2017-Jan-17 14:33N 54°21' E 018°44'0 0.0
2017-Jan-17 13:33N 54°21' E 018°44'0 0.0
2017-Jan-17 12:33N 54°21' E 018°44'0 0.0
2017-Jan-17 11:33N 54°21' E 018°44'0 0.0
2017-Jan-17 10:33N 54°21' E 018°44'0 0.0
2017-Jan-17 09:33N 54°21' E 018°44'0 0.0
2017-Jan-17 08:33N 54°21' E 018°44'0 0.0
2017-Jan-17 07:33N 54°21' E 018°44'0 0.0
2017-Jan-17 06:33N 54°21' E 018°44'0 0.0
2017-Jan-17 05:33N 54°21' E 018°44'0 0.0
2017-Jan-17 04:33N 54°21' E 018°44'0 0.0
2017-Jan-17 03:33N 54°21' E 018°44'0 0.0
2017-Jan-17 02:33N 54°21' E 018°44'0 0.0
2017-Jan-17 01:33N 54°21' E 018°44'0 0.0
2017-Jan-17 00:33N 54°21' E 018°44'0 0.0
2017-Jan-16 23:33N 54°21' E 018°44'0 0.0
2017-Jan-16 22:33N 54°21' E 018°44'0 0.0
2017-Jan-16 21:33N 54°21' E 018°44'0 0.0
2017-Jan-16 20:33N 54°21' E 018°44'0 0.0
2017-Jan-16 19:33N 54°21' E 018°44'0 0.0
2017-Jan-16 18:33N 54°21' E 018°44'0 0.0
2017-Jan-16 17:33N 54°21' E 018°44'0 0.0
2017-Jan-16 16:33N 54°21' E 018°44'0 0.0
2017-Jan-16 15:33N 54°21' E 018°44'0 0.0
2017-Jan-16 14:33N 54°21' E 018°44'0 0.0
2017-Jan-16 13:33N 54°21' E 018°44'0 0.0
2017-Jan-16 12:33N 54°21' E 018°44'0 0.0
2017-Jan-16 11:33N 54°21' E 018°44'0 0.0
2017-Jan-16 10:33N 54°21' E 018°44'0 0.0
2017-Jan-16 09:33N 54°21' E 018°44'0 0.0
2017-Jan-16 08:33N 54°21' E 018°44'0 0.0
2017-Jan-16 07:33N 54°21' E 018°44'0 0.0
2017-Jan-16 06:33N 54°21' E 018°44'0 0.0
2017-Jan-16 05:33N 54°21' E 018°44'0 0.0
2017-Jan-16 04:33N 54°21' E 018°44'0 0.0
2017-Jan-16 03:33N 54°21' E 018°44'0 0.0
2017-Jan-16 02:33N 54°21' E 018°44'0 0.0
2017-Jan-16 01:33N 54°21' E 018°44'0 0.0
2017-Jan-16 00:33N 54°21' E 018°44'0 0.0
2017-Jan-15 23:33N 54°21' E 018°44'0 0.0
2017-Jan-15 22:33N 54°21' E 018°44'0 0.0
2017-Jan-15 21:33N 54°21' E 018°44'0 0.0
2017-Jan-15 20:33N 54°21' E 018°44'0 0.0
2017-Jan-15 19:33N 54°21' E 018°44'0 0.0
2017-Jan-15 18:33N 54°21' E 018°44'0 0.0
2017-Jan-15 17:33N 54°21' E 018°44'0 0.0
2017-Jan-15 16:33N 54°21' E 018°44'0 0.0
2017-Jan-15 15:30N 54°21' E 018°44'0 0.0
2017-Jan-15 14:33N 54°21' E 018°44'0 0.0
2017-Jan-15 13:30N 54°21' E 018°44'0 0.0
2017-Jan-15 12:33N 54°21' E 018°44'0 0.0
2017-Jan-15 11:30N 54°21' E 018°44'0 0.0
2017-Jan-15 10:33N 54°21' E 018°44'0 0.0
2017-Jan-15 09:33N 54°21' E 018°44'0 0.0
2017-Jan-15 08:33N 54°21' E 018°44'0 0.0
2017-Jan-15 07:33N 54°21' E 018°44'0 0.0
2017-Jan-15 06:33N 54°21' E 018°44'0 0.0
2017-Jan-15 05:33N 54°21' E 018°44'0 0.0
2017-Jan-15 04:33N 54°21' E 018°44'0 0.0
2017-Jan-15 03:33N 54°21' E 018°44'0 0.0
2017-Jan-15 02:33N 54°21' E 018°44'0 0.0
2017-Jan-15 01:33N 54°21' E 018°44'0 0.0
2017-Jan-15 00:30N 54°21' E 018°44'0 0.0
2017-Jan-14 23:33N 54°21' E 018°44'0 0.0
2017-Jan-14 22:33N 54°21' E 018°44'0 0.0
2017-Jan-14 21:33N 54°21' E 018°44'0 0.0
2017-Jan-14 20:33N 54°21' E 018°44'0 0.0
2017-Jan-14 19:33N 54°21' E 018°44'0 0.0
2017-Jan-14 18:33N 54°21' E 018°44'0 0.0
2017-Jan-14 17:33N 54°21' E 018°44'0 0.0
2017-Jan-14 16:33N 54°21' E 018°44'0 0.0
2017-Jan-14 15:33N 54°21' E 018°44'0 0.0
2017-Jan-14 14:33N 54°21' E 018°44'0 0.0
2017-Jan-14 13:33N 54°21' E 018°44'0 0.0
2017-Jan-14 12:33N 54°21' E 018°44'0 0.0
2017-Jan-14 11:33N 54°21' E 018°44'0 0.0
2017-Jan-14 10:33N 54°21' E 018°44'  

Dump ship's entire track history